sensor_id;sensor_type;location;lat;lon;timestamp;noise_LAeq;noise_LA_min;noise_LA_max;noise_LA01;noise_LA95
69619;Laerm;57653;51.434;5.984;2023-01-10T00:00:09;36.48;32.58;44.27;;
69619;Laerm;57653;51.434;5.984;2023-01-10T00:00:20;33.66;32.60;37.91;;
69619;Laerm;57653;51.434;5.984;2023-01-10T00:00:31;34.48;32.77;45.26;;
69619;Laerm;57653;51.434;5.984;2023-01-10T00:00:44;34.03;32.89;39.09;;
69619;Laerm;57653;51.434;5.984;2023-01-10T00:00:54;34.61;32.74;50.11;;
69619;Laerm;57653;51.434;5.984;2023-01-10T00:01:05;35.12;32.32;51.25;;
69619;Laerm;57653;51.434;5.984;2023-01-10T00:01:16;33.86;32.52;39.83;;
69619;Laerm;57653;51.434;5.984;2023-01-10T00:01:27;34.47;32.87;46.48;;
69619;Laerm;57653;51.434;5.984;2023-01-10T00:01:39;34.11;32.63;44.36;;
69619;Laerm;57653;51.434;5.984;2023-01-10T00:01:50;33.84;32.54;40.44;;
69619;Laerm;57653;51.434;5.984;2023-01-10T00:02:00;33.90;32.30;36.87;;
69619;Laerm;57653;51.434;5.984;2023-01-10T00:02:14;34.51;32.73;40.84;;
69619;Laerm;57653;51.434;5.984;2023-01-10T00:02:25;33.92;32.42;35.42;;
69619;Laerm;57653;51.434;5.984;2023-01-10T00:02:35;34.73;32.86;40.17;;
69619;Laerm;57653;51.434;5.984;2023-01-10T00:02:46;34.53;33.33;37.72;;
69619;Laerm;57653;51.434;5.984;2023-01-10T00:02:56;35.40;33.39;41.89;;
69619;Laerm;57653;51.434;5.984;2023-01-10T00:03:07;35.68;33.63;41.60;;
69619;Laerm;57653;51.434;5.984;2023-01-10T00:03:18;38.80;33.07;58.69;;
69619;Laerm;57653;51.434;5.984;2023-01-10T00:03:28;34.82;33.32;47.56;;
69619;Laerm;57653;51.434;5.984;2023-01-10T00:03:38;34.16;32.90;37.06;;
69619;Laerm;57653;51.434;5.984;2023-01-10T00:03:49;33.99;32.76;38.60;;
69619;Laerm;57653;51.434;5.984;2023-01-10T00:03:59;34.05;32.75;35.34;;
69619;Laerm;57653;51.434;5.984;2023-01-10T00:04:10;33.90;32.86;34.89;;
69619;Laerm;57653;51.434;5.984;2023-01-10T00:04:20;34.02;32.60;40.80;;
69619;Laerm;57653;51.434;5.984;2023-01-10T00:04:33;34.12;32.82;40.09;;
69619;Laerm;57653;51.434;5.984;2023-01-10T00:04:44;34.51;32.86;42.85;;
69619;Laerm;57653;51.434;5.984;2023-01-10T00:04:54;34.28;33.02;41.40;;
69619;Laerm;57653;51.434;5.984;2023-01-10T00:05:05;35.43;32.61;46.01;;
69619;Laerm;57653;51.434;5.984;2023-01-10T00:05:15;34.30;33.05;38.77;;
69619;Laerm;57653;51.434;5.984;2023-01-10T00:05:26;34.90;33.21;40.66;;
69619;Laerm;57653;51.434;5.984;2023-01-10T00:05:37;36.30;32.99;48.19;;
69619;Laerm;57653;51.434;5.984;2023-01-10T00:05:47;35.43;32.90;43.62;;
69619;Laerm;57653;51.434;5.984;2023-01-10T00:05:58;34.18;32.48;40.47;;
69619;Laerm;57653;51.434;5.984;2023-01-10T00:06:10;34.20;32.68;40.58;;
69619;Laerm;57653;51.434;5.984;2023-01-10T00:06:21;33.88;32.73;38.76;;
69619;Laerm;57653;51.434;5.984;2023-01-10T00:06:32;33.85;32.51;37.09;;
69619;Laerm;57653;51.434;5.984;2023-01-10T00:06:45;34.38;32.89;38.29;;
69619;Laerm;57653;51.434;5.984;2023-01-10T00:06:55;36.50;33.20;47.00;;
69619;Laerm;57653;51.434;5.984;2023-01-10T00:07:06;35.17;33.13;43.41;;
69619;Laerm;57653;51.434;5.984;2023-01-10T00:07:16;34.14;32.92;38.56;;
69619;Laerm;57653;51.434;5.984;2023-01-10T00:07:26;34.90;33.41;44.85;;
69619;Laerm;57653;51.434;5.984;2023-01-10T00:07:37;35.77;33.58;50.12;;
69619;Laerm;57653;51.434;5.984;2023-01-10T00:07:47;36.88;33.80;40.55;;
69619;Laerm;57653;51.434;5.984;2023-01-10T00:07:57;39.32;37.36;42.01;;
69619;Laerm;57653;51.434;5.984;2023-01-10T00:08:09;44.81;37.53;51.68;;
69619;Laerm;57653;51.434;5.984;2023-01-10T00:08:23;66.22;49.73;71.30;;
69619;Laerm;57653;51.434;5.984;2023-01-10T00:08:33;69.24;66.25;72.19;;
69619;Laerm;57653;51.434;5.984;2023-01-10T00:08:44;65.43;48.26;71.57;;
69619;Laerm;57653;51.434;5.984;2023-01-10T00:08:54;39.65;33.83;49.72;;
69619;Laerm;57653;51.434;5.984;2023-01-10T00:09:06;34.43;32.45;44.54;;
69619;Laerm;57653;51.434;5.984;2023-01-10T00:09:17;35.98;32.38;46.47;;
69619;Laerm;57653;51.434;5.984;2023-01-10T00:09:27;38.56;32.81;48.01;;
69619;Laerm;57653;51.434;5.984;2023-01-10T00:09:37;36.75;32.90;46.85;;
69619;Laerm;57653;51.434;5.984;2023-01-10T00:09:50;37.87;32.57;48.89;;
69619;Laerm;57653;51.434;5.984;2023-01-10T00:10:01;37.84;33.03;53.80;;
69619;Laerm;57653;51.434;5.984;2023-01-10T00:10:11;36.95;32.77;50.33;;
69619;Laerm;57653;51.434;5.984;2023-01-10T00:10:23;34.12;32.55;45.65;;
69619;Laerm;57653;51.434;5.984;2023-01-10T00:10:33;33.84;32.68;42.35;;
69619;Laerm;57653;51.434;5.984;2023-01-10T00:10:44;34.11;32.65;41.17;;
69619;Laerm;57653;51.434;5.984;2023-01-10T00:10:54;33.98;32.67;36.24;;
69619;Laerm;57653;51.434;5.984;2023-01-10T00:11:05;34.04;32.75;43.46;;
69619;Laerm;57653;51.434;5.984;2023-01-10T00:11:35;33.41;32.15;35.75;;
69619;Laerm;57653;51.434;5.984;2023-01-10T00:12:04;33.53;32.06;39.05;;
69619;Laerm;57653;51.434;5.984;2023-01-10T00:12:33;33.66;32.13;50.24;;
69619;Laerm;57653;51.434;5.984;2023-01-10T00:13:02;33.59;32.04;47.56;;
69619;Laerm;57653;51.434;5.984;2023-01-10T00:13:31;34.21;32.08;54.40;;
69619;Laerm;57653;51.434;5.984;2023-01-10T00:13:41;33.40;32.35;34.81;;
69619;Laerm;57653;51.434;5.984;2023-01-10T00:13:55;34.43;32.17;51.24;;
69619;Laerm;57653;51.434;5.984;2023-01-10T00:14:05;33.43;31.79;38.12;;
69619;Laerm;57653;51.434;5.984;2023-01-10T00:14:16;33.40;32.24;37.12;;
69619;Laerm;57653;51.434;5.984;2023-01-10T00:14:28;33.67;32.04;38.00;;
69619;Laerm;57653;51.434;5.984;2023-01-10T00:14:39;33.63;32.19;44.95;;
69619;Laerm;57653;51.434;5.984;2023-01-10T00:14:49;33.53;32.26;40.55;;
69619;Laerm;57653;51.434;5.984;2023-01-10T00:15:00;33.52;32.39;40.46;;
69619;Laerm;57653;51.434;5.984;2023-01-10T00:15:10;33.73;32.32;43.77;;
69619;Laerm;57653;51.434;5.984;2023-01-10T00:15:21;33.66;32.45;41.90;;
69619;Laerm;57653;51.434;5.984;2023-01-10T00:15:32;33.66;32.51;35.88;;
69619;Laerm;57653;51.434;5.984;2023-01-10T00:15:42;34.32;32.28;48.33;;
69619;Laerm;57653;51.434;5.984;2023-01-10T00:15:54;33.64;32.35;38.35;;
69619;Laerm;57653;51.434;5.984;2023-01-10T00:16:07;33.59;32.46;38.95;;
69619;Laerm;57653;51.434;5.984;2023-01-10T00:16:18;33.35;32.21;37.99;;
69619;Laerm;57653;51.434;5.984;2023-01-10T00:16:28;33.30;32.01;34.30;;
69619;Laerm;57653;51.434;5.984;2023-01-10T00:16:39;33.26;31.96;34.46;;
69619;Laerm;57653;51.434;5.984;2023-01-10T00:16:49;33.29;32.13;34.52;;
69619;Laerm;57653;51.434;5.984;2023-01-10T00:17:01;33.33;32.10;34.51;;
69619;Laerm;57653;51.434;5.984;2023-01-10T00:17:11;33.38;32.32;34.67;;
69619;Laerm;57653;51.434;5.984;2023-01-10T00:17:22;33.51;32.40;38.35;;
69619;Laerm;57653;51.434;5.984;2023-01-10T00:17:32;33.61;32.02;45.48;;
69619;Laerm;57653;51.434;5.984;2023-01-10T00:17:42;33.44;32.39;37.68;;
69619;Laerm;57653;51.434;5.984;2023-01-10T00:17:53;33.35;32.16;37.15;;
69619;Laerm;57653;51.434;5.984;2023-01-10T00:18:03;34.00;32.28;47.45;;
69619;Laerm;57653;51.434;5.984;2023-01-10T00:18:14;34.31;32.28;50.17;;
69619;Laerm;57653;51.434;5.984;2023-01-10T00:18:25;33.73;32.13;41.37;;
69619;Laerm;57653;51.434;5.984;2023-01-10T00:18:35;33.75;32.36;38.64;;
69619;Laerm;57653;51.434;5.984;2023-01-10T00:18:48;33.40;32.27;37.97;;
69619;Laerm;57653;51.434;5.984;2023-01-10T00:18:58;33.32;32.36;37.28;;
69619;Laerm;57653;51.434;5.984;2023-01-10T00:19:08;34.16;32.53;43.62;;
69619;Laerm;57653;51.434;5.984;2023-01-10T00:19:19;35.49;32.26;46.20;;
69619;Laerm;57653;51.434;5.984;2023-01-10T00:19:30;33.44;32.28;34.67;;
69619;Laerm;57653;51.434;5.984;2023-01-10T00:19:40;33.61;32.41;42.67;;
69619;Laerm;57653;51.434;5.984;2023-01-10T00:19:51;33.60;32.49;41.26;;
69619;Laerm;57653;51.434;5.984;2023-01-10T00:20:01;33.97;32.40;44.07;;
69619;Laerm;57653;51.434;5.984;2023-01-10T00:20:12;33.56;32.12;39.96;;
69619;Laerm;57653;51.434;5.984;2023-01-10T00:20:23;33.82;32.36;46.45;;
69619;Laerm;57653;51.434;5.984;2023-01-10T00:20:33;33.62;32.21;39.59;;
69619;Laerm;57653;51.434;5.984;2023-01-10T00:20:43;34.01;32.65;47.17;;
69619;Laerm;57653;51.434;5.984;2023-01-10T00:20:55;33.87;31.98;46.21;;
69619;Laerm;57653;51.434;5.984;2023-01-10T00:21:05;34.02;32.23;44.18;;
69619;Laerm;57653;51.434;5.984;2023-01-10T00:21:18;33.58;32.32;39.12;;
69619;Laerm;57653;51.434;5.984;2023-01-10T00:21:29;33.59;32.17;40.65;;
69619;Laerm;57653;51.434;5.984;2023-01-10T00:21:42;33.38;32.02;35.84;;
69619;Laerm;57653;51.434;5.984;2023-01-10T00:21:52;33.50;32.36;35.00;;
69619;Laerm;57653;51.434;5.984;2023-01-10T00:22:04;33.73;32.52;41.94;;
69619;Laerm;57653;51.434;5.984;2023-01-10T00:22:18;33.81;32.26;43.07;;
69619;Laerm;57653;51.434;5.984;2023-01-10T00:22:32;33.57;32.39;39.68;;
69619;Laerm;57653;51.434;5.984;2023-01-10T00:22:42;33.79;32.18;41.90;;
69619;Laerm;57653;51.434;5.984;2023-01-10T00:22:54;33.62;32.36;42.10;;
69619;Laerm;57653;51.434;5.984;2023-01-10T00:23:05;33.41;32.33;36.92;;
69619;Laerm;57653;51.434;5.984;2023-01-10T00:23:16;33.39;31.94;35.63;;
69619;Laerm;57653;51.434;5.984;2023-01-10T00:23:27;33.30;31.97;34.51;;
69619;Laerm;57653;51.434;5.984;2023-01-10T00:23:37;33.33;32.39;34.30;;
69619;Laerm;57653;51.434;5.984;2023-01-10T00:23:48;33.30;32.03;34.53;;
69619;Laerm;57653;51.434;5.984;2023-01-10T00:23:58;33.51;32.16;37.17;;
69619;Laerm;57653;51.434;5.984;2023-01-10T00:24:17;34.44;32.33;52.18;;
69619;Laerm;57653;51.434;5.984;2023-01-10T00:24:28;33.84;32.50;39.60;;
69619;Laerm;57653;51.434;5.984;2023-01-10T00:24:38;33.45;32.17;35.28;;
69619;Laerm;57653;51.434;5.984;2023-01-10T00:24:49;33.96;32.28;41.19;;
69619;Laerm;57653;51.434;5.984;2023-01-10T00:24:59;34.12;32.36;41.42;;
69619;Laerm;57653;51.434;5.984;2023-01-10T00:25:10;34.84;32.69;41.29;;
69619;Laerm;57653;51.434;5.984;2023-01-10T00:25:20;35.34;32.80;48.18;;
69619;Laerm;57653;51.434;5.984;2023-01-10T00:25:31;35.66;32.81;47.94;;
69619;Laerm;57653;51.434;5.984;2023-01-10T00:25:45;34.73;33.18;48.47;;
69619;Laerm;57653;51.434;5.984;2023-01-10T00:25:55;34.30;32.96;36.26;;
69619;Laerm;57653;51.434;5.984;2023-01-10T00:26:06;35.33;32.77;44.41;;
69619;Laerm;57653;51.434;5.984;2023-01-10T00:26:16;35.81;32.64;48.61;;
69619;Laerm;57653;51.434;5.984;2023-01-10T00:26:26;34.13;32.70;38.72;;
69619;Laerm;57653;51.434;5.984;2023-01-10T00:26:37;35.67;32.61;48.02;;
69619;Laerm;57653;51.434;5.984;2023-01-10T00:26:48;35.88;32.58;47.73;;
69619;Laerm;57653;51.434;5.984;2023-01-10T00:27:02;33.50;32.25;35.46;;
69619;Laerm;57653;51.434;5.984;2023-01-10T00:27:12;33.59;32.44;34.91;;
69619;Laerm;57653;51.434;5.984;2023-01-10T00:27:26;33.90;32.71;38.53;;
69619;Laerm;57653;51.434;5.984;2023-01-10T00:27:36;34.01;32.45;43.39;;
69619;Laerm;57653;51.434;5.984;2023-01-10T00:27:47;33.95;32.09;39.31;;
69619;Laerm;57653;51.434;5.984;2023-01-10T00:28:15;34.94;32.71;46.32;;
69619;Laerm;57653;51.434;5.984;2023-01-10T00:28:28;34.75;32.43;41.35;;
69619;Laerm;57653;51.434;5.984;2023-01-10T00:28:43;34.95;33.48;39.32;;
69619;Laerm;57653;51.434;5.984;2023-01-10T00:28:54;36.18;33.62;52.87;;
69619;Laerm;57653;51.434;5.984;2023-01-10T00:29:04;36.62;33.70;47.48;;
69619;Laerm;57653;51.434;5.984;2023-01-10T00:29:20;41.16;35.69;48.18;;
69619;Laerm;57653;51.434;5.984;2023-01-10T00:29:30;60.70;46.42;66.36;;
69619;Laerm;57653;51.434;5.984;2023-01-10T00:29:41;63.48;60.90;67.58;;
69619;Laerm;57653;51.434;5.984;2023-01-10T00:29:51;61.39;58.27;63.71;;
69619;Laerm;57653;51.434;5.984;2023-01-10T00:30:03;52.75;33.72;59.37;;
69619;Laerm;57653;51.434;5.984;2023-01-10T00:30:22;33.74;32.45;36.59;;
69619;Laerm;57653;51.434;5.984;2023-01-10T00:30:33;33.91;32.43;41.65;;
69619;Laerm;57653;51.434;5.984;2023-01-10T00:30:51;33.68;32.46;39.30;;
69619;Laerm;57653;51.434;5.984;2023-01-10T00:31:04;33.47;32.30;35.52;;
69619;Laerm;57653;51.434;5.984;2023-01-10T00:31:17;33.33;31.99;34.52;;
69619;Laerm;57653;51.434;5.984;2023-01-10T00:31:28;33.25;32.17;34.37;;
69619;Laerm;57653;51.434;5.984;2023-01-10T00:31:38;33.47;32.32;43.33;;
69619;Laerm;57653;51.434;5.984;2023-01-10T00:31:49;33.37;32.22;34.42;;
69619;Laerm;57653;51.434;5.984;2023-01-10T00:32:02;34.66;32.13;49.92;;
69619;Laerm;57653;51.434;5.984;2023-01-10T00:32:13;33.67;32.15;42.39;;
69619;Laerm;57653;51.434;5.984;2023-01-10T00:32:23;33.77;32.40;39.31;;
69619;Laerm;57653;51.434;5.984;2023-01-10T00:32:34;35.96;33.01;51.44;;
69619;Laerm;57653;51.434;5.984;2023-01-10T00:32:44;35.12;32.86;44.86;;
69619;Laerm;57653;51.434;5.984;2023-01-10T00:32:55;36.02;32.74;48.08;;
69619;Laerm;57653;51.434;5.984;2023-01-10T00:33:06;34.95;32.72;47.69;;
69619;Laerm;57653;51.434;5.984;2023-01-10T00:33:16;35.83;32.72;50.59;;
69619;Laerm;57653;51.434;5.984;2023-01-10T00:33:30;34.53;32.88;37.38;;
69619;Laerm;57653;51.434;5.984;2023-01-10T00:33:43;36.51;34.11;41.00;;
69619;Laerm;57653;51.434;5.984;2023-01-10T00:33:53;37.77;34.41;50.03;;
69619;Laerm;57653;51.434;5.984;2023-01-10T00:34:04;37.57;34.07;46.35;;
69619;Laerm;57653;51.434;5.984;2023-01-10T00:34:16;35.15;33.16;46.71;;
69619;Laerm;57653;51.434;5.984;2023-01-10T00:34:26;34.19;33.08;36.86;;
69619;Laerm;57653;51.434;5.984;2023-01-10T00:34:36;34.41;32.88;41.36;;
69619;Laerm;57653;51.434;5.984;2023-01-10T00:34:47;35.55;33.33;49.04;;
69619;Laerm;57653;51.434;5.984;2023-01-10T00:34:57;35.13;32.45;46.28;;
69619;Laerm;57653;51.434;5.984;2023-01-10T00:35:08;33.93;32.77;40.34;;
69619;Laerm;57653;51.434;5.984;2023-01-10T00:35:18;34.10;32.70;44.98;;
69619;Laerm;57653;51.434;5.984;2023-01-10T00:35:29;35.02;32.41;45.33;;
69619;Laerm;57653;51.434;5.984;2023-01-10T00:35:39;34.13;32.48;47.52;;
69619;Laerm;57653;51.434;5.984;2023-01-10T00:35:50;33.71;32.65;39.48;;
69619;Laerm;57653;51.434;5.984;2023-01-10T00:36:01;34.24;32.44;43.96;;
69619;Laerm;57653;51.434;5.984;2023-01-10T00:36:12;33.73;32.19;39.64;;
69619;Laerm;57653;51.434;5.984;2023-01-10T00:36:22;34.11;32.40;47.58;;
69619;Laerm;57653;51.434;5.984;2023-01-10T00:36:33;33.77;32.41;39.34;;
69619;Laerm;57653;51.434;5.984;2023-01-10T00:36:43;33.70;32.58;35.99;;
69619;Laerm;57653;51.434;5.984;2023-01-10T00:36:54;34.60;32.53;44.19;;
69619;Laerm;57653;51.434;5.984;2023-01-10T00:37:04;34.00;32.66;42.18;;
69619;Laerm;57653;51.434;5.984;2023-01-10T00:37:15;35.88;32.77;47.88;;
69619;Laerm;57653;51.434;5.984;2023-01-10T00:37:25;33.77;32.67;36.04;;
69619;Laerm;57653;51.434;5.984;2023-01-10T00:37:36;33.64;32.30;37.36;;
69619;Laerm;57653;51.434;5.984;2023-01-10T00:37:47;33.84;32.32;39.41;;
69619;Laerm;57653;51.434;5.984;2023-01-10T00:37:57;35.86;32.40;55.80;;
69619;Laerm;57653;51.434;5.984;2023-01-10T00:38:10;34.24;32.65;45.68;;
69619;Laerm;57653;51.434;5.984;2023-01-10T00:38:20;34.81;32.92;45.67;;
69619;Laerm;57653;51.434;5.984;2023-01-10T00:38:31;34.08;32.64;40.68;;
69619;Laerm;57653;51.434;5.984;2023-01-10T00:38:45;33.57;32.47;37.30;;
69619;Laerm;57653;51.434;5.984;2023-01-10T00:38:55;34.31;32.75;36.47;;
69619;Laerm;57653;51.434;5.984;2023-01-10T00:39:05;34.88;32.97;42.52;;
69619;Laerm;57653;51.434;5.984;2023-01-10T00:39:16;35.62;32.55;50.30;;
69619;Laerm;57653;51.434;5.984;2023-01-10T00:39:29;40.30;33.28;56.51;;
69619;Laerm;57653;51.434;5.984;2023-01-10T00:39:40;40.09;32.96;56.76;;
69619;Laerm;57653;51.434;5.984;2023-01-10T00:39:50;34.55;32.83;45.81;;
69619;Laerm;57653;51.434;5.984;2023-01-10T00:40:01;35.82;32.91;55.35;;
69619;Laerm;57653;51.434;5.984;2023-01-10T00:40:11;34.07;32.79;40.67;;
69619;Laerm;57653;51.434;5.984;2023-01-10T00:40:22;33.98;32.80;44.57;;
69619;Laerm;57653;51.434;5.984;2023-01-10T00:40:33;34.77;33.12;44.86;;
69619;Laerm;57653;51.434;5.984;2023-01-10T00:40:44;34.66;32.90;43.05;;
69619;Laerm;57653;51.434;5.984;2023-01-10T00:40:54;36.33;33.03;48.05;;
69619;Laerm;57653;51.434;5.984;2023-01-10T00:41:04;34.25;32.65;42.11;;
69619;Laerm;57653;51.434;5.984;2023-01-10T00:41:34;34.56;32.41;49.42;;
69619;Laerm;57653;51.434;5.984;2023-01-10T00:42:04;34.76;32.40;48.55;;
69619;Laerm;57653;51.434;5.984;2023-01-10T00:42:33;34.27;32.43;50.63;;
69619;Laerm;57653;51.434;5.984;2023-01-10T00:43:02;33.88;32.40;40.70;;
69619;Laerm;57653;51.434;5.984;2023-01-10T00:43:30;34.15;32.36;46.16;;
69619;Laerm;57653;51.434;5.984;2023-01-10T00:43:59;33.97;32.08;45.05;;
69619;Laerm;57653;51.434;5.984;2023-01-10T00:44:10;34.33;32.63;46.75;;
69619;Laerm;57653;51.434;5.984;2023-01-10T00:44:20;34.48;32.26;47.13;;
69619;Laerm;57653;51.434;5.984;2023-01-10T00:44:30;33.65;32.36;38.76;;
69619;Laerm;57653;51.434;5.984;2023-01-10T00:44:40;34.02;32.49;44.56;;
69619;Laerm;57653;51.434;5.984;2023-01-10T00:44:51;34.28;32.68;41.53;;
69619;Laerm;57653;51.434;5.984;2023-01-10T00:45:01;36.55;33.06;46.73;;
69619;Laerm;57653;51.434;5.984;2023-01-10T00:45:11;34.22;33.09;35.62;;
69619;Laerm;57653;51.434;5.984;2023-01-10T00:45:22;33.79;32.51;38.10;;
69619;Laerm;57653;51.434;5.984;2023-01-10T00:45:33;33.80;32.54;35.31;;
69619;Laerm;57653;51.434;5.984;2023-01-10T00:45:44;33.71;32.39;34.85;;
69619;Laerm;57653;51.434;5.984;2023-01-10T00:45:55;34.46;32.39;48.96;;
69619;Laerm;57653;51.434;5.984;2023-01-10T00:46:07;34.66;32.88;48.16;;
69619;Laerm;57653;51.434;5.984;2023-01-10T00:46:17;33.97;32.25;36.17;;
69619;Laerm;57653;51.434;5.984;2023-01-10T00:46:27;35.00;32.74;49.38;;
69619;Laerm;57653;51.434;5.984;2023-01-10T00:46:38;34.05;32.51;43.51;;
69619;Laerm;57653;51.434;5.984;2023-01-10T00:46:48;33.85;32.71;35.84;;
69619;Laerm;57653;51.434;5.984;2023-01-10T00:46:58;33.89;32.63;37.91;;
69619;Laerm;57653;51.434;5.984;2023-01-10T00:47:08;36.39;32.68;47.14;;
69619;Laerm;57653;51.434;5.984;2023-01-10T00:47:19;35.13;32.99;47.80;;
69619;Laerm;57653;51.434;5.984;2023-01-10T00:47:29;34.94;33.94;40.43;;
69619;Laerm;57653;51.434;5.984;2023-01-10T00:47:39;35.26;33.80;37.59;;
69619;Laerm;57653;51.434;5.984;2023-01-10T00:47:50;35.24;33.79;36.96;;
69619;Laerm;57653;51.434;5.984;2023-01-10T00:48:01;34.57;33.26;41.63;;
69619;Laerm;57653;51.434;5.984;2023-01-10T00:48:11;34.47;32.50;45.31;;
69619;Laerm;57653;51.434;5.984;2023-01-10T00:48:22;34.31;33.06;37.84;;
69619;Laerm;57653;51.434;5.984;2023-01-10T00:48:32;34.16;32.63;38.14;;
69619;Laerm;57653;51.434;5.984;2023-01-10T00:48:43;33.92;32.40;35.71;;
69619;Laerm;57653;51.434;5.984;2023-01-10T00:48:53;34.53;33.24;35.84;;
69619;Laerm;57653;51.434;5.984;2023-01-10T00:49:03;35.56;32.68;44.52;;
69619;Laerm;57653;51.434;5.984;2023-01-10T00:49:21;37.01;33.71;49.50;;
69619;Laerm;57653;51.434;5.984;2023-01-10T00:49:31;36.28;33.87;50.98;;
69619;Laerm;57653;51.434;5.984;2023-01-10T00:49:42;38.11;33.76;55.67;;
69619;Laerm;57653;51.434;5.984;2023-01-10T00:49:52;42.65;33.69;53.60;;
69619;Laerm;57653;51.434;5.984;2023-01-10T00:50:03;34.30;33.20;37.03;;
69619;Laerm;57653;51.434;5.984;2023-01-10T00:50:15;33.85;32.85;34.86;;
69619;Laerm;57653;51.434;5.984;2023-01-10T00:50:25;34.05;32.87;36.12;;
69619;Laerm;57653;51.434;5.984;2023-01-10T00:50:35;34.62;32.73;46.05;;
69619;Laerm;57653;51.434;5.984;2023-01-10T00:50:46;34.60;33.11;36.94;;
69619;Laerm;57653;51.434;5.984;2023-01-10T00:50:56;34.17;32.79;35.74;;
69619;Laerm;57653;51.434;5.984;2023-01-10T00:51:06;34.83;33.60;39.28;;
69619;Laerm;57653;51.434;5.984;2023-01-10T00:51:17;34.69;33.07;45.99;;
69619;Laerm;57653;51.434;5.984;2023-01-10T00:51:27;34.67;33.45;37.08;;
69619;Laerm;57653;51.434;5.984;2023-01-10T00:51:37;34.67;33.31;44.38;;
69619;Laerm;57653;51.434;5.984;2023-01-10T00:51:48;34.60;33.17;40.96;;
69619;Laerm;57653;51.434;5.984;2023-01-10T00:51:58;34.35;32.76;44.23;;
69619;Laerm;57653;51.434;5.984;2023-01-10T00:52:08;34.20;32.77;37.04;;
69619;Laerm;57653;51.434;5.984;2023-01-10T00:52:19;34.66;33.15;40.86;;
69619;Laerm;57653;51.434;5.984;2023-01-10T00:52:29;35.20;33.52;43.55;;
69619;Laerm;57653;51.434;5.984;2023-01-10T00:52:39;34.52;33.12;42.14;;
69619;Laerm;57653;51.434;5.984;2023-01-10T00:52:50;34.25;32.79;42.42;;
69619;Laerm;57653;51.434;5.984;2023-01-10T00:53:00;33.96;32.48;44.34;;
69619;Laerm;57653;51.434;5.984;2023-01-10T00:53:11;34.12;32.82;39.13;;
69619;Laerm;57653;51.434;5.984;2023-01-10T00:53:21;35.12;33.13;44.12;;
69619;Laerm;57653;51.434;5.984;2023-01-10T00:53:32;42.26;34.01;54.94;;
69619;Laerm;57653;51.434;5.984;2023-01-10T00:53:42;40.98;35.04;52.92;;
69619;Laerm;57653;51.434;5.984;2023-01-10T00:53:52;36.70;33.03;51.37;;
69619;Laerm;57653;51.434;5.984;2023-01-10T00:54:03;35.14;33.85;39.82;;
69619;Laerm;57653;51.434;5.984;2023-01-10T00:54:13;34.90;32.60;42.35;;
69619;Laerm;57653;51.434;5.984;2023-01-10T00:54:24;34.18;32.58;40.82;;
69619;Laerm;57653;51.434;5.984;2023-01-10T00:54:34;34.88;33.38;39.56;;
69619;Laerm;57653;51.434;5.984;2023-01-10T00:54:44;41.41;33.84;54.44;;
69619;Laerm;57653;51.434;5.984;2023-01-10T00:54:55;35.62;33.84;46.97;;
69619;Laerm;57653;51.434;5.984;2023-01-10T00:55:05;35.22;33.59;37.10;;
69619;Laerm;57653;51.434;5.984;2023-01-10T00:55:18;35.69;33.49;40.73;;
69619;Laerm;57653;51.434;5.984;2023-01-10T00:55:28;36.74;33.56;53.54;;
69619;Laerm;57653;51.434;5.984;2023-01-10T00:55:39;35.11;33.93;40.05;;
69619;Laerm;57653;51.434;5.984;2023-01-10T00:55:49;34.36;33.26;39.68;;
69619;Laerm;57653;51.434;5.984;2023-01-10T00:56:00;35.60;33.33;46.57;;
69619;Laerm;57653;51.434;5.984;2023-01-10T00:56:10;35.41;33.33;39.13;;
69619;Laerm;57653;51.434;5.984;2023-01-10T00:56:20;35.73;33.60;40.51;;
69619;Laerm;57653;51.434;5.984;2023-01-10T00:56:31;34.25;33.19;37.79;;
69619;Laerm;57653;51.434;5.984;2023-01-10T00:56:41;38.24;33.34;56.24;;
69619;Laerm;57653;51.434;5.984;2023-01-10T00:56:52;35.06;33.05;44.81;;
69619;Laerm;57653;51.434;5.984;2023-01-10T00:57:02;36.49;33.36;47.74;;
69619;Laerm;57653;51.434;5.984;2023-01-10T00:57:12;35.72;33.87;44.74;;
69619;Laerm;57653;51.434;5.984;2023-01-10T00:57:23;35.89;32.75;50.66;;
69619;Laerm;57653;51.434;5.984;2023-01-10T00:57:33;34.42;32.85;41.20;;
69619;Laerm;57653;51.434;5.984;2023-01-10T00:57:43;36.40;33.50;42.42;;
69619;Laerm;57653;51.434;5.984;2023-01-10T00:57:54;38.00;35.84;44.20;;
69619;Laerm;57653;51.434;5.984;2023-01-10T00:58:04;39.46;35.84;48.77;;
69619;Laerm;57653;51.434;5.984;2023-01-10T00:58:15;43.52;35.39;59.93;;
69619;Laerm;57653;51.434;5.984;2023-01-10T00:58:25;47.49;35.48;61.53;;
69619;Laerm;57653;51.434;5.984;2023-01-10T00:58:36;48.39;36.04;63.94;;
69619;Laerm;57653;51.434;5.984;2023-01-10T00:58:46;39.80;33.28;58.42;;
69619;Laerm;57653;51.434;5.984;2023-01-10T00:58:56;35.94;32.95;53.82;;
69619;Laerm;57653;51.434;5.984;2023-01-10T00:59:07;34.73;33.21;42.27;;
69619;Laerm;57653;51.434;5.984;2023-01-10T00:59:17;35.29;33.38;45.81;;
69619;Laerm;57653;51.434;5.984;2023-01-10T00:59:27;34.75;33.36;39.13;;
69619;Laerm;57653;51.434;5.984;2023-01-10T00:59:38;34.39;32.75;43.96;;
69619;Laerm;57653;51.434;5.984;2023-01-10T00:59:48;34.68;33.10;43.22;;
69619;Laerm;57653;51.434;5.984;2023-01-10T00:59:59;37.51;33.40;48.58;;
69619;Laerm;57653;51.434;5.984;2023-01-10T01:00:09;36.78;33.36;46.28;;
69619;Laerm;57653;51.434;5.984;2023-01-10T01:00:21;35.72;33.24;44.92;;
69619;Laerm;57653;51.434;5.984;2023-01-10T01:00:31;34.93;33.21;42.63;;
69619;Laerm;57653;51.434;5.984;2023-01-10T01:00:42;36.07;33.96;45.46;;
69619;Laerm;57653;51.434;5.984;2023-01-10T01:00:55;35.30;33.25;45.84;;
69619;Laerm;57653;51.434;5.984;2023-01-10T01:01:09;35.38;32.95;45.11;;
69619;Laerm;57653;51.434;5.984;2023-01-10T01:01:19;36.95;33.08;57.61;;
69619;Laerm;57653;51.434;5.984;2023-01-10T01:01:30;34.19;32.80;37.06;;
69619;Laerm;57653;51.434;5.984;2023-01-10T01:01:41;34.04;32.37;42.43;;
69619;Laerm;57653;51.434;5.984;2023-01-10T01:01:51;35.10;33.08;46.13;;
69619;Laerm;57653;51.434;5.984;2023-01-10T01:02:02;35.62;33.53;48.72;;
69619;Laerm;57653;51.434;5.984;2023-01-10T01:02:12;34.58;32.91;42.28;;
69619;Laerm;57653;51.434;5.984;2023-01-10T01:02:22;38.79;33.57;59.22;;
69619;Laerm;57653;51.434;5.984;2023-01-10T01:02:33;34.42;32.97;41.23;;
69619;Laerm;57653;51.434;5.984;2023-01-10T01:02:43;35.78;33.13;47.07;;
69619;Laerm;57653;51.434;5.984;2023-01-10T01:02:53;36.58;34.52;49.11;;
69619;Laerm;57653;51.434;5.984;2023-01-10T01:03:05;34.71;33.09;40.56;;
69619;Laerm;57653;51.434;5.984;2023-01-10T01:03:16;34.61;32.95;41.01;;
69619;Laerm;57653;51.434;5.984;2023-01-10T01:03:27;36.54;33.82;52.11;;
69619;Laerm;57653;51.434;5.984;2023-01-10T01:03:37;40.87;32.64;54.99;;
69619;Laerm;57653;51.434;5.984;2023-01-10T01:03:50;36.52;33.40;47.14;;
69619;Laerm;57653;51.434;5.984;2023-01-10T01:04:00;34.38;32.39;43.35;;
69619;Laerm;57653;51.434;5.984;2023-01-10T01:04:11;35.89;33.14;44.56;;
69619;Laerm;57653;51.434;5.984;2023-01-10T01:04:21;35.10;32.70;44.82;;
69619;Laerm;57653;51.434;5.984;2023-01-10T01:04:32;35.48;33.60;46.28;;
69619;Laerm;57653;51.434;5.984;2023-01-10T01:04:43;35.88;33.88;41.40;;
69619;Laerm;57653;51.434;5.984;2023-01-10T01:04:53;39.35;33.81;54.65;;